createdAt,value
2023-02-26T00:02:46.169Z,99062.04
2023-02-26T00:07:40.380Z,99070.73
2023-02-26T00:12:33.697Z,99081.63
2023-02-26T00:17:59.130Z,99100.55
2023-02-26T00:22:52.260Z,99113.36
2023-02-26T00:27:50.467Z,99118.38
2023-02-26T00:32:44.802Z,99117.48
2023-02-26T00:37:40.370Z,99120.59
2023-02-26T00:42:34.594Z,99128.56
2023-02-26T00:47:52.719Z,99130.34
2023-02-26T00:53:04.620Z,99142.17
2023-02-26T00:58:02.500Z,99148.95
2023-02-26T01:03:11.335Z,99153.97
2023-02-26T01:08:38.874Z,99160.40
2023-02-26T01:13:35.767Z,99168.83
2023-02-26T01:18:47.848Z,99172.83
2023-02-26T01:23:44.572Z,99177.05
2023-02-26T01:28:38.008Z,99183.85
2023-02-26T01:33:41.424Z,99196.36
2023-02-26T01:39:07.047Z,99206.86
2023-02-26T01:44:15.736Z,99220.61
2023-02-26T01:49:17.002Z,99235.09
2023-02-26T01:54:10.219Z,99242.06
2023-02-26T01:59:06.260Z,99256.52
2023-02-26T02:03:59.541Z,99269.77
2023-02-26T02:08:53.397Z,99278.37
2023-02-26T02:13:52.008Z,99293.78
2023-02-26T02:19:17.088Z,99301.08
2023-02-26T02:24:19.938Z,99311.27
2023-02-26T02:29:39.713Z,99312.96
2023-02-26T02:34:41.739Z,99319.33
2023-02-26T02:39:40.334Z,99328.33
2023-02-26T02:44:40.591Z,99340.58
2023-02-26T02:49:42.900Z,99345.35
2023-02-26T02:54:52.945Z,99353.11
2023-02-26T02:59:49.253Z,99360.73
2023-02-26T03:04:43.775Z,99375.19
2023-02-26T03:09:37.386Z,99387.30
2023-02-26T03:14:30.845Z,99398.98
2023-02-26T03:19:41.903Z,99411.91
2023-02-26T03:25:10.446Z,99421.23
2023-02-26T03:30:16.140Z,99430.17
2023-02-26T03:35:18.542Z,99443.77
2023-02-26T03:40:41.416Z,99449.89
2023-02-26T03:45:40.148Z,99455.48
2023-02-26T03:50:44.596Z,99464.73
2023-02-26T03:56:05.636Z,99474.13
2023-02-26T04:01:22.227Z,99482.30
2023-02-26T04:06:20.965Z,99486.02
2023-02-26T04:11:20.624Z,99496.05
2023-02-26T04:16:18.967Z,99508.98
2023-02-26T04:21:15.604Z,99517.23
2023-02-26T04:26:09.522Z,99520.70
2023-02-26T04:31:06.130Z,99525.60
2023-02-26T04:35:59.404Z,99528.80
2023-02-26T04:40:52.509Z,99539.66
2023-02-26T04:45:49.770Z,99541.50
2023-02-26T04:50:43.211Z,99552.44
2023-02-26T04:55:37.567Z,99557.20
2023-02-26T05:00:31.689Z,99558.86
2023-02-26T05:05:25.752Z,99570.25
2023-02-26T05:10:18.670Z,99573.98
2023-02-26T05:15:12.124Z,99584.80
2023-02-26T05:20:10.678Z,99590.47
2023-02-26T05:25:05.128Z,99600.35
2023-02-26T05:29:58.274Z,99612.27
2023-02-26T05:34:51.109Z,99626.34
2023-02-26T05:39:43.961Z,99635.45
2023-02-26T05:44:36.864Z,99644.44
2023-02-26T05:49:29.845Z,99655.17
2023-02-26T05:54:25.187Z,99666.04
2023-02-26T05:59:18.107Z,99676.94
2023-02-26T06:04:11.010Z,99686.50
2023-02-26T06:09:03.836Z,99692.81
2023-02-26T06:13:59.329Z,99698.96
2023-02-26T06:18:52.255Z,99707.17
2023-02-26T06:23:45.866Z,99715.60
2023-02-26T06:28:38.683Z,99728.32
2023-02-26T06:33:31.545Z,99736.00
2023-02-26T06:38:24.537Z,99750.95
2023-02-26T06:43:17.387Z,99764.27
2023-02-26T06:48:11.407Z,99776.10
2023-02-26T06:53:08.067Z,99787.90
2023-02-26T06:58:00.947Z,99799.58
2023-02-26T07:02:54.482Z,99815.20
2023-02-26T07:07:47.638Z,99826.45
2023-02-26T07:12:40.469Z,99830.85
2023-02-26T07:17:33.883Z,99843.11
2023-02-26T07:22:26.670Z,99848.42
2023-02-26T07:27:19.685Z,99856.15
2023-02-26T07:32:13.351Z,99861.67
2023-02-26T07:37:06.574Z,99871.69
2023-02-26T07:42:00.997Z,99883.80
2023-02-26T07:46:54.731Z,99886.09
2023-02-26T07:51:48.375Z,99892.56
2023-02-26T07:56:42.874Z,99903.36
2023-02-26T08:01:36.391Z,99912.61
2023-02-26T08:06:29.919Z,99918.79
2023-02-26T08:11:23.173Z,99921.31
2023-02-26T08:16:16.111Z,99927.56
2023-02-26T08:21:09.126Z,99938.31
2023-02-26T08:26:03.532Z,99944.88
2023-02-26T08:30:56.839Z,99950.21
2023-02-26T08:35:50.700Z,99953.52
2023-02-26T08:40:43.516Z,99964.08
2023-02-26T08:45:36.706Z,99975.07
2023-02-26T08:50:29.549Z,99986.38
2023-02-26T08:55:23.436Z,99998.58
2023-02-26T09:00:18.638Z,100014.03
2023-02-26T09:05:12.921Z,100027.23
2023-02-26T09:10:07.475Z,100036.27
2023-02-26T09:15:00.498Z,100052.75
2023-02-26T09:19:53.411Z,100064.83
2023-02-26T09:24:46.248Z,100071.91
2023-02-26T09:29:39.039Z,100076.63
2023-02-26T09:34:31.930Z,100081.03
2023-02-26T09:39:25.424Z,100085.84
2023-02-26T09:44:31.839Z,100097.91
2023-02-26T09:49:36.832Z,100104.97
2023-02-26T09:54:36.148Z,100110.42
2023-02-26T09:59:33.970Z,100117.55
2023-02-26T10:04:59.799Z,100123.52
2023-02-26T10:10:19.140Z,100131.23
2023-02-26T10:15:14.813Z,100140.04
2023-02-26T10:20:16.849Z,100151.34
2023-02-26T10:25:19.656Z,100154.31
2023-02-26T10:30:23.223Z,100158.80
2023-02-26T10:35:20.073Z,100169.48
2023-02-26T10:40:29.292Z,100172.95
2023-02-26T10:45:38.791Z,100186.30
2023-02-26T10:50:33.179Z,100195.69
2023-02-26T10:55:55.229Z,100202.77
2023-02-26T11:00:53.255Z,100206.81
2023-02-26T11:05:46.969Z,100211.23
2023-02-26T11:10:49.963Z,100216.68
2023-02-26T11:15:44.079Z,100223.69
2023-02-26T11:20:43.295Z,100232.34
2023-02-26T11:25:37.574Z,100236.75
2023-02-26T11:30:34.331Z,100243.80
2023-02-26T11:35:32.591Z,100248.13
2023-02-26T11:40:35.033Z,100249.14
2023-02-26T11:45:28.149Z,100249.81
2023-02-26T11:50:26.104Z,100255.89
2023-02-26T11:55:28.990Z,100264.86
2023-02-26T12:00:26.502Z,100272.63
2023-02-26T12:05:19.578Z,100278.31
2023-02-26T12:10:20.086Z,100282.21
2023-02-26T12:15:29.811Z,100290.77
2023-02-26T12:20:33.701Z,100299.48
2023-02-26T12:25:32.385Z,100304.97
2023-02-26T12:30:40.583Z,100313.13
2023-02-26T12:35:33.438Z,100316.23
2023-02-26T12:40:33.710Z,100324.60
2023-02-26T12:45:41.812Z,100333.32
2023-02-26T12:50:34.575Z,100347.17
2023-02-26T12:55:39.710Z,100349.92
2023-02-26T13:00:54.046Z,100355.86
2023-02-26T13:06:09.303Z,100357.23
2023-02-26T13:11:07.878Z,100356.84
2023-02-26T13:16:46.036Z,100359.23
2023-02-26T13:21:45.979Z,100362.33
2023-02-26T13:26:42.496Z,100371.79
2023-02-26T13:31:41.667Z,100374.39
2023-02-26T13:36:35.514Z,100375.09
2023-02-26T13:41:49.604Z,100386.34
2023-02-26T13:46:51.779Z,100393.94
2023-02-26T13:51:47.592Z,100395.69
2023-02-26T13:56:40.620Z,100399.42
2023-02-26T14:01:36.129Z,100402.70
2023-02-26T14:21:26.613Z,100414.35
2023-02-26T14:26:20.637Z,100419.59
2023-02-26T14:31:19.846Z,100422.36
2023-02-26T14:36:21.099Z,100423.77
2023-02-26T14:41:26.249Z,100436.86
2023-02-26T14:46:20.081Z,100441.36
2023-02-26T14:51:43.048Z,100451.77
2023-02-26T14:57:03.457Z,100454.77
2023-02-26T15:02:37.912Z,100460.27
2023-02-26T15:07:42.314Z,100480.31
2023-02-26T15:12:44.297Z,100485.54
2023-02-26T15:17:51.918Z,100486.09
2023-02-26T15:22:56.601Z,100494.55
2023-02-26T15:27:49.845Z,100501.60
2023-02-26T15:32:42.978Z,100513.23
2023-02-26T15:37:36.143Z,100517.19
2023-02-26T15:42:34.209Z,100520.48
2023-02-26T15:47:30.022Z,100529.94
2023-02-26T15:52:25.299Z,100532.46
2023-02-26T15:57:20.095Z,100534.44
2023-02-26T16:02:14.500Z,100548.56
2023-02-26T16:07:07.213Z,100553.95
2023-02-26T16:12:02.965Z,100559.49
2023-02-26T16:16:57.473Z,100567.64
2023-02-26T16:21:52.883Z,100573.00
2023-02-26T16:26:52.856Z,100586.70
2023-02-26T16:31:52.696Z,100588.57
2023-02-26T16:36:45.552Z,100601.52
2023-02-26T16:41:41.386Z,100611.67
2023-02-26T16:46:48.257Z,100617.55
2023-02-26T16:51:42.211Z,100623.21
2023-02-26T16:56:42.041Z,100628.29
2023-02-26T17:01:53.027Z,100628.29
2023-02-26T17:06:45.842Z,100639.30
2023-02-26T17:11:45.788Z,100643.70
2023-02-26T17:16:38.487Z,100645.61
2023-02-26T17:21:32.866Z,100651.57
2023-02-26T17:26:26.090Z,100660.98
2023-02-26T17:31:19.206Z,100670.69
2023-02-26T17:36:16.647Z,100682.18
2023-02-26T17:41:12.084Z,100688.85
2023-02-26T17:46:04.976Z,100697.53
2023-02-26T17:50:59.370Z,100703.15
2023-02-26T17:55:54.285Z,100712.77
2023-02-26T18:00:49.819Z,100717.99
2023-02-26T18:05:43.524Z,100725.80
2023-02-26T18:10:36.194Z,100729.36
2023-02-26T18:15:28.838Z,100731.02
2023-02-26T18:20:23.425Z,100736.80
2023-02-26T18:25:16.602Z,100737.84
2023-02-26T18:30:22.592Z,100739.09
2023-02-26T18:35:17.821Z,100745.17
2023-02-26T18:40:17.972Z,100750.99
2023-02-26T18:45:12.310Z,100757.70
2023-02-26T18:50:07.263Z,100771.38
2023-02-26T18:55:00.675Z,100777.48
2023-02-26T18:59:53.323Z,100783.91
2023-02-26T19:04:47.258Z,100785.36
2023-02-26T19:09:40.236Z,100794.48
2023-02-26T19:14:33.319Z,100804.79
2023-02-26T19:19:26.083Z,100809.71
2023-02-26T19:24:18.778Z,100812.23
2023-02-26T19:29:16.893Z,100811.13
2023-02-26T19:34:09.830Z,100812.27
2023-02-26T19:39:05.667Z,100816.61
2023-02-26T19:43:58.986Z,100821.29
2023-02-26T19:48:51.909Z,100823.89
2023-02-26T19:53:44.667Z,100832.33
2023-02-26T19:58:37.390Z,100843.74
2023-02-26T20:03:31.383Z,100847.97
2023-02-26T20:08:27.864Z,100856.62
2023-02-26T20:13:22.194Z,100856.42
2023-02-26T20:18:14.863Z,100866.61
2023-02-26T20:23:07.560Z,100869.20
2023-02-26T20:28:00.388Z,100869.05
2023-02-26T20:32:53.287Z,100877.15
2023-02-26T20:37:46.664Z,100881.16
2023-02-26T20:42:39.724Z,100888.10
2023-02-26T20:47:32.368Z,100886.16
2023-02-26T20:52:25.310Z,100893.92
2023-02-26T20:57:18.241Z,100896.57
2023-02-26T21:02:13.884Z,100895.79
2023-02-26T21:07:17.712Z,100900.58
2023-02-26T21:12:10.690Z,100900.43
2023-02-26T21:17:07.212Z,100904.31
2023-02-26T21:22:01.131Z,100902.90
2023-02-26T21:26:53.887Z,100910.20
2023-02-26T21:31:46.717Z,100917.44
2023-02-26T21:36:39.483Z,100926.34
2023-02-26T21:41:36.650Z,100934.48
2023-02-26T21:46:29.518Z,100933.95
2023-02-26T21:51:22.530Z,100936.95
2023-02-26T21:56:15.274Z,100944.23
2023-02-26T22:01:10.475Z,100945.31
2023-02-26T22:06:03.347Z,100948.79
2023-02-26T22:10:57.039Z,100953.11
2023-02-26T22:15:50.204Z,100959.50
2023-02-26T22:20:43.094Z,100960.80
2023-02-26T22:25:35.901Z,100971.84
2023-02-26T22:30:28.705Z,100973.46
2023-02-26T22:35:21.516Z,100982.92
2023-02-26T22:40:15.684Z,100984.82
2023-02-26T22:45:09.213Z,100989.64
2023-02-26T22:50:02.069Z,100986.40
2023-02-26T22:54:54.729Z,100991.55
2023-02-26T22:59:48.427Z,100998.86
2023-02-26T23:04:41.087Z,101007.77
2023-02-26T23:09:33.867Z,101011.20
2023-02-26T23:14:26.559Z,101011.79
2023-02-26T23:19:22.725Z,101021.09
2023-02-26T23:24:18.077Z,101023.55
2023-02-26T23:29:11.030Z,101026.27
2023-02-26T23:34:04.885Z,101028.04
2023-02-26T23:38:57.731Z,101030.69
2023-02-26T23:43:50.446Z,101040.74
2023-02-26T23:48:43.675Z,101038.69
2023-02-26T23:53:37.706Z,101039.30
2023-02-26T23:58:31.845Z,101039.41
